TAP6767 LPFR-LPMA
Flight info
| Callsign | TAP6767 |
|---|---|
| Flight time | N/A |
| Altitude | 33000 |
| Route | IXOLI2V IXOLI DCT NARTA DCT GALPA DCT RAKUN RAKUN1P |
| Aircraft | A321/M-SDE3FGHIRWY/LB1 |
Departure
| Time | 2026-05-05 18:29 |
|---|---|
| Airport | Faro - Gago Coutinho International Airport (LPFR) |
Arrival
| Time | N/A |
|---|---|
| Airport | Cristiano Ronaldo International Airport (LPMA) |
| Time | Latitude | Longitude | Altitude | Speed | Heading |
|---|---|---|---|---|---|
| 2026-05-05 18:10 | 37.01900 | -7.96774 | 29 ft | 0 kts | 10° |
| 2026-05-05 18:15 | 37.01899 | -7.96774 | 29 ft | 0 kts | 10° |
| 2026-05-05 18:22 | 37.01884 | -7.96777 | 29 ft | 4 kts | 10° |
| 2026-05-05 18:22 | 37.01858 | -7.96783 | 28 ft | 3 kts | 9° |
| 2026-05-05 18:23 | 37.01836 | -7.96790 | 27 ft | 4 kts | 46° |
| 2026-05-05 18:23 | 37.01828 | -7.96816 | 26 ft | 4 kts | 95° |
| 2026-05-05 18:23 | 37.01830 | -7.96835 | 26 ft | 1 kts | 101° |
| 2026-05-05 18:23 | 37.01830 | -7.96837 | 26 ft | 2 kts | 101° |
| 2026-05-05 18:25 | 37.01824 | -7.96797 | 28 ft | 10 kts | 101° |
| 2026-05-05 18:26 | 37.01806 | -7.96666 | 29 ft | 20 kts | 98° |
| 2026-05-05 18:26 | 37.01750 | -7.96530 | 28 ft | 18 kts | 166° |
| 2026-05-05 18:26 | 37.01633 | -7.96524 | 29 ft | 18 kts | 140° |
| 2026-05-05 18:26 | 37.01591 | -7.96337 | 28 ft | 27 kts | 98° |
| 2026-05-05 18:27 | 37.01558 | -7.96101 | 27 ft | 31 kts | 102° |
| 2026-05-05 18:27 | 37.01529 | -7.95900 | 27 ft | 14 kts | 104° |
| 2026-05-05 18:27 | 37.01460 | -7.95842 | 27 ft | 9 kts | 191° |
| 2026-05-05 18:27 | 37.01448 | -7.95844 | 27 ft | 0 kts | 187° |
| 2026-05-05 18:28 | 37.01398 | -7.95853 | 27 ft | 14 kts | 189° |
| 2026-05-05 18:28 | 37.01348 | -7.95920 | 27 ft | 10 kts | 276° |
| 2026-05-05 18:28 | 37.01368 | -7.96066 | 27 ft | 42 kts | 280° |
| 2026-05-05 18:29 | 37.01470 | -7.96768 | 31 ft | 119 kts | 281° |
| 2026-05-05 18:29 | 37.01683 | -7.98025 | 150 ft | 168 kts | 283° |
| 2026-05-05 18:29 | 37.01896 | -7.99464 | 940 ft | 169 kts | 284° |
| 2026-05-05 18:29 | 37.02105 | -8.00893 | 1789 ft | 160 kts | 286° |
| 2026-05-05 18:30 | 37.02292 | -8.02235 | 2331 ft | 159 kts | 284° |
| 2026-05-05 18:30 | 37.02501 | -8.03690 | 2482 ft | 179 kts | 285° |
| 2026-05-05 18:30 | 37.02731 | -8.05282 | 2615 ft | 196 kts | 284° |
| 2026-05-05 18:30 | 37.02958 | -8.07018 | 2861 ft | 208 kts | 278° |
| 2026-05-05 18:31 | 37.02937 | -8.08910 | 3020 ft | 228 kts | 271° |
| 2026-05-05 18:31 | 37.02706 | -8.10968 | 3211 ft | 251 kts | 262° |
| 2026-05-05 18:31 | 37.02301 | -8.13161 | 3649 ft | 264 kts | 261° |
| 2026-05-05 18:31 | 37.01862 | -8.15422 | 4289 ft | 269 kts | 259° |
| 2026-05-05 18:32 | 37.01406 | -8.17717 | 4937 ft | 274 kts | 259° |
| 2026-05-05 18:32 | 37.00940 | -8.20039 | 5617 ft | 276 kts | 259° |
| 2026-05-05 18:32 | 37.00472 | -8.22377 | 6320 ft | 278 kts | 259° |
| 2026-05-05 18:32 | 37.00002 | -8.24728 | 6995 ft | 278 kts | 258° |
| 2026-05-05 18:33 | 36.99534 | -8.27080 | 7668 ft | 279 kts | 258° |
| 2026-05-05 18:33 | 36.99067 | -8.29430 | 8341 ft | 280 kts | 258° |
| 2026-05-05 18:33 | 36.98595 | -8.31800 | 9006 ft | 281 kts | 258° |
| 2026-05-05 18:33 | 36.98123 | -8.34174 | 9669 ft | 282 kts | 258° |
| 2026-05-05 18:34 | 36.97646 | -8.36562 | 10252 ft | 286 kts | 258° |
| 2026-05-05 18:34 | 36.97155 | -8.39028 | 10386 ft | 304 kts | 258° |
| 2026-05-05 18:34 | 36.96627 | -8.41686 | 10522 ft | 322 kts | 258° |
| 2026-05-05 18:34 | 36.96071 | -8.44484 | 10638 ft | 339 kts | 257° |
| 2026-05-05 18:35 | 36.95491 | -8.47378 | 10942 ft | 349 kts | 257° |
| 2026-05-05 18:35 | 36.94896 | -8.50343 | 11444 ft | 352 kts | 257° |
| 2026-05-05 18:35 | 36.94293 | -8.53333 | 11980 ft | 355 kts | 257° |
| 2026-05-05 18:35 | 36.93696 | -8.56300 | 12504 ft | 357 kts | 257° |
| 2026-05-05 18:36 | 36.93087 | -8.59324 | 13044 ft | 360 kts | 257° |
| 2026-05-05 18:36 | 36.92476 | -8.62363 | 13545 ft | 362 kts | 258° |
| 2026-05-05 18:36 | 36.91854 | -8.65445 | 14062 ft | 364 kts | 257° |
| 2026-05-05 18:36 | 36.91231 | -8.68525 | 14510 ft | 367 kts | 257° |
| 2026-05-05 18:37 | 36.90601 | -8.71625 | 14966 ft | 368 kts | 257° |
| 2026-05-05 18:37 | 36.89968 | -8.74733 | 15425 ft | 370 kts | 257° |
| 2026-05-05 18:37 | 36.89547 | -8.76802 | 15731 ft | 371 kts | 257° |
| 2026-05-05 18:37 | 36.88908 | -8.79934 | 16166 ft | 373 kts | 257° |
| 2026-05-05 18:38 | 36.88265 | -8.83082 | 16598 ft | 375 kts | 257° |
| 2026-05-05 18:38 | 36.87406 | -8.87290 | 17148 ft | 377 kts | 257° |
| 2026-05-05 18:38 | 36.86969 | -8.89438 | 17422 ft | 378 kts | 257° |
| 2026-05-05 18:38 | 36.86328 | -8.92594 | 17812 ft | 380 kts | 257° |
| 2026-05-05 18:39 | 36.85670 | -8.95820 | 18199 ft | 382 kts | 257° |
| 2026-05-05 18:39 | 36.85006 | -8.99056 | 18538 ft | 383 kts | 257° |
| 2026-05-05 18:39 | 36.84344 | -9.02262 | 18855 ft | 385 kts | 257° |
| 2026-05-05 18:39 | 36.83669 | -9.05524 | 19171 ft | 387 kts | 256° |
| 2026-05-05 18:40 | 36.83002 | -9.08749 | 19486 ft | 388 kts | 256° |
| 2026-05-05 18:40 | 36.82325 | -9.12018 | 19796 ft | 390 kts | 256° |
| 2026-05-05 18:40 | 36.81646 | -9.15301 | 20109 ft | 391 kts | 257° |
| 2026-05-05 18:40 | 36.80963 | -9.18609 | 20420 ft | 393 kts | 256° |
| 2026-05-05 18:41 | 36.80275 | -9.21936 | 20746 ft | 395 kts | 256° |
| 2026-05-05 18:41 | 36.79592 | -9.25224 | 21065 ft | 397 kts | 256° |
| 2026-05-05 18:41 | 36.78897 | -9.28574 | 21398 ft | 398 kts | 256° |
| 2026-05-05 18:41 | 36.78199 | -9.31923 | 21717 ft | 400 kts | 256° |
| 2026-05-05 18:42 | 36.77496 | -9.35292 | 22038 ft | 402 kts | 256° |
| 2026-05-05 18:42 | 36.76787 | -9.38677 | 22368 ft | 404 kts | 256° |
| 2026-05-05 18:42 | 36.76075 | -9.42078 | 22697 ft | 406 kts | 256° |
| 2026-05-05 18:42 | 36.75360 | -9.45490 | 23016 ft | 408 kts | 256° |
| 2026-05-05 18:43 | 36.74638 | -9.48930 | 23345 ft | 410 kts | 256° |
| 2026-05-05 18:43 | 36.73914 | -9.52374 | 23653 ft | 412 kts | 256° |
| 2026-05-05 18:43 | 36.73185 | -9.55838 | 23915 ft | 414 kts | 256° |
| 2026-05-05 18:43 | 36.72451 | -9.59313 | 24188 ft | 415 kts | 256° |
| 2026-05-05 18:44 | 36.71714 | -9.62797 | 24468 ft | 416 kts | 256° |
| 2026-05-05 18:44 | 36.70975 | -9.66288 | 24743 ft | 417 kts | 256° |
| 2026-05-05 18:44 | 36.70233 | -9.69785 | 25028 ft | 418 kts | 256° |
| 2026-05-05 18:44 | 36.69489 | -9.73289 | 25308 ft | 419 kts | 256° |
| 2026-05-05 18:45 | 36.68744 | -9.76804 | 25585 ft | 420 kts | 256° |
| 2026-05-05 18:45 | 36.68006 | -9.80286 | 25876 ft | 420 kts | 256° |
| 2026-05-05 18:45 | 36.67252 | -9.83827 | 26140 ft | 421 kts | 256° |
| 2026-05-05 18:45 | 36.66492 | -9.87372 | 26417 ft | 422 kts | 256° |
| 2026-05-05 18:46 | 36.65731 | -9.90904 | 26704 ft | 422 kts | 256° |
| 2026-05-05 18:46 | 36.64981 | -9.94396 | 26967 ft | 423 kts | 256° |
| 2026-05-05 18:46 | 36.64212 | -9.97984 | 27235 ft | 423 kts | 256° |
| 2026-05-05 18:46 | 36.63453 | -10.01524 | 27489 ft | 424 kts | 256° |
| 2026-05-05 18:47 | 36.62701 | -10.05025 | 27733 ft | 424 kts | 256° |
| 2026-05-05 18:47 | 36.61938 | -10.08575 | 27965 ft | 425 kts | 256° |
| 2026-05-05 18:47 | 36.61171 | -10.12132 | 28185 ft | 425 kts | 256° |
| 2026-05-05 18:47 | 36.60402 | -10.15683 | 28393 ft | 426 kts | 256° |
| 2026-05-05 18:48 | 36.59629 | -10.19245 | 28581 ft | 426 kts | 256° |
| 2026-05-05 18:48 | 36.58857 | -10.22806 | 28774 ft | 426 kts | 256° |
| 2026-05-05 18:48 | 36.58083 | -10.26373 | 29009 ft | 425 kts | 256° |
| 2026-05-05 18:48 | 36.57311 | -10.29925 | 29283 ft | 424 kts | 256° |
| 2026-05-05 18:49 | 36.56542 | -10.33458 | 29549 ft | 422 kts | 256° |
| 2026-05-05 18:49 | 36.55784 | -10.36943 | 29787 ft | 420 kts | 256° |
| 2026-05-05 18:49 | 36.55019 | -10.40440 | 30058 ft | 419 kts | 255° |
| 2026-05-05 18:49 | 36.54252 | -10.43936 | 30289 ft | 417 kts | 255° |
| 2026-05-05 18:50 | 36.53484 | -10.47427 | 30484 ft | 417 kts | 255° |
| 2026-05-05 18:50 | 36.52717 | -10.50902 | 30669 ft | 416 kts | 255° |
| 2026-05-05 18:50 | 36.51952 | -10.54365 | 30848 ft | 416 kts | 255° |
| 2026-05-05 18:50 | 36.51184 | -10.57831 | 31026 ft | 416 kts | 255° |
| 2026-05-05 18:51 | 36.50416 | -10.61295 | 31203 ft | 415 kts | 255° |
| 2026-05-05 18:51 | 36.49653 | -10.64754 | 31383 ft | 415 kts | 255° |
| 2026-05-05 18:51 | 36.48900 | -10.68168 | 31570 ft | 415 kts | 255° |
| 2026-05-05 18:51 | 36.48132 | -10.71637 | 31754 ft | 414 kts | 255° |
| 2026-05-05 18:52 | 36.47364 | -10.75093 | 31923 ft | 414 kts | 255° |
| 2026-05-05 18:52 | 36.46594 | -10.78542 | 32104 ft | 414 kts | 255° |
| 2026-05-05 18:52 | 36.45831 | -10.81958 | 32226 ft | 415 kts | 255° |
| 2026-05-05 18:52 | 36.45058 | -10.85427 | 32359 ft | 416 kts | 255° |
| 2026-05-05 18:53 | 36.44288 | -10.88889 | 32489 ft | 416 kts | 255° |
| 2026-05-05 18:53 | 36.43515 | -10.92355 | 32623 ft | 417 kts | 255° |
| 2026-05-05 18:53 | 36.42739 | -10.95823 | 32753 ft | 417 kts | 255° |
| 2026-05-05 18:53 | 36.41960 | -10.99300 | 32885 ft | 417 kts | 255° |
| 2026-05-05 18:54 | 36.41181 | -11.02769 | 33055 ft | 417 kts | 255° |
| 2026-05-05 18:54 | 36.40408 | -11.06201 | 33129 ft | 418 kts | 255° |
| 2026-05-05 18:54 | 36.38825 | -11.13215 | 33134 ft | 421 kts | 255° |
| 2026-05-05 18:55 | 36.37234 | -11.20256 | 33135 ft | 427 kts | 255° |
| 2026-05-05 18:55 | 36.35620 | -11.27352 | 33135 ft | 431 kts | 252° |
| 2026-05-05 18:56 | 36.34355 | -11.30735 | 33135 ft | 434 kts | 239° |
| 2026-05-05 18:56 | 36.32682 | -11.33877 | 33131 ft | 436 kts | 238° |
| 2026-05-05 18:56 | 36.29294 | -11.40123 | 33135 ft | 437 kts | 238° |
| 2026-05-05 18:57 | 36.25899 | -11.46351 | 33139 ft | 437 kts | 238° |
| 2026-05-05 18:57 | 36.22498 | -11.52602 | 33143 ft | 438 kts | 238° |
| 2026-05-05 18:58 | 36.19074 | -11.58856 | 33146 ft | 439 kts | 237° |
| 2026-05-05 18:58 | 36.15500 | -11.64981 | 33149 ft | 439 kts | 235° |
| 2026-05-05 18:59 | 36.11836 | -11.71042 | 33150 ft | 440 kts | 235° |
| 2026-05-05 18:59 | 36.08186 | -11.77050 | 33152 ft | 440 kts | 235° |
| 2026-05-05 19:00 | 36.04529 | -11.83133 | 33148 ft | 440 kts | 236° |
| 2026-05-05 19:00 | 36.00914 | -11.89256 | 33149 ft | 440 kts | 236° |
| 2026-05-05 19:01 | 35.97308 | -11.95350 | 33156 ft | 441 kts | 236° |
| 2026-05-05 19:01 | 35.93663 | -12.01441 | 33155 ft | 441 kts | 235° |
| 2026-05-05 19:02 | 35.90003 | -12.07524 | 33151 ft | 441 kts | 235° |
| 2026-05-05 19:02 | 35.86370 | -12.13577 | 33145 ft | 440 kts | 235° |
| 2026-05-05 19:03 | 35.82720 | -12.19659 | 33140 ft | 440 kts | 235° |
| 2026-05-05 19:03 | 35.79069 | -12.25722 | 33144 ft | 441 kts | 235° |
| 2026-05-05 19:04 | 35.75411 | -12.31778 | 33145 ft | 440 kts | 235° |
| 2026-05-05 19:04 | 35.71779 | -12.37799 | 33150 ft | 441 kts | 235° |
| 2026-05-05 19:05 | 35.68109 | -12.43867 | 33155 ft | 441 kts | 235° |
| 2026-05-05 19:05 | 35.64432 | -12.49937 | 33158 ft | 442 kts | 235° |
| 2026-05-05 19:06 | 35.60771 | -12.55972 | 33156 ft | 442 kts | 235° |
| 2026-05-05 19:06 | 35.57086 | -12.62018 | 33164 ft | 442 kts | 235° |
| 2026-05-05 19:07 | 35.53388 | -12.68083 | 33162 ft | 442 kts | 235° |
| 2026-05-05 19:07 | 35.49692 | -12.74134 | 33162 ft | 443 kts | 235° |
| 2026-05-05 19:08 | 35.46011 | -12.80150 | 33162 ft | 443 kts | 235° |
| 2026-05-05 19:08 | 35.42316 | -12.86186 | 33158 ft | 443 kts | 235° |
| 2026-05-05 19:09 | 35.38610 | -12.92221 | 33166 ft | 443 kts | 235° |
| 2026-05-05 19:09 | 35.34915 | -12.98232 | 33165 ft | 443 kts | 235° |
| 2026-05-05 19:10 | 35.31197 | -13.04256 | 33166 ft | 443 kts | 234° |
| 2026-05-05 19:10 | 35.27480 | -13.10279 | 33176 ft | 443 kts | 235° |
| 2026-05-05 19:11 | 35.23783 | -13.16277 | 33168 ft | 443 kts | 234° |
| 2026-05-05 19:11 | 35.20069 | -13.22281 | 33165 ft | 443 kts | 234° |
| 2026-05-05 19:12 | 35.16340 | -13.28297 | 33162 ft | 443 kts | 234° |
| 2026-05-05 19:12 | 35.12619 | -13.34272 | 33168 ft | 443 kts | 234° |
| 2026-05-05 19:13 | 35.08893 | -13.40243 | 33168 ft | 443 kts | 234° |
| 2026-05-05 19:13 | 35.05167 | -13.46225 | 33164 ft | 443 kts | 234° |
| 2026-05-05 19:14 | 35.01430 | -13.52235 | 33171 ft | 442 kts | 234° |
| 2026-05-05 19:14 | 34.97720 | -13.58170 | 33167 ft | 442 kts | 234° |
| 2026-05-05 19:15 | 34.93976 | -13.64138 | 33165 ft | 442 kts | 234° |
| 2026-05-05 19:15 | 34.90240 | -13.70090 | 33161 ft | 442 kts | 234° |
| 2026-05-05 19:16 | 34.86516 | -13.76017 | 33165 ft | 442 kts | 234° |
| 2026-05-05 19:16 | 34.82781 | -13.81949 | 33171 ft | 442 kts | 234° |
| 2026-05-05 19:17 | 34.79045 | -13.87884 | 33166 ft | 442 kts | 234° |
| 2026-05-05 19:17 | 34.75287 | -13.93826 | 33166 ft | 442 kts | 234° |
| 2026-05-05 19:18 | 34.71551 | -13.99712 | 33166 ft | 442 kts | 234° |
| 2026-05-05 19:18 | 34.67795 | -14.05642 | 33166 ft | 442 kts | 234° |
| 2026-05-05 19:19 | 34.64051 | -14.11554 | 33165 ft | 442 kts | 234° |
| 2026-05-05 19:19 | 34.60286 | -14.17478 | 33166 ft | 442 kts | 234° |
| 2026-05-05 19:20 | 34.56534 | -14.23356 | 33165 ft | 441 kts | 234° |
| 2026-05-05 19:20 | 34.52787 | -14.29234 | 33160 ft | 441 kts | 234° |
| 2026-05-05 19:21 | 34.49029 | -14.35126 | 33165 ft | 441 kts | 234° |
| 2026-05-05 19:21 | 34.45257 | -14.41015 | 33164 ft | 441 kts | 234° |
| 2026-05-05 19:22 | 34.41505 | -14.46849 | 33165 ft | 441 kts | 234° |
| 2026-05-05 19:22 | 34.37728 | -14.52721 | 33164 ft | 441 kts | 234° |
| 2026-05-05 19:23 | 34.33973 | -14.58566 | 33161 ft | 441 kts | 234° |
| 2026-05-05 19:23 | 34.30196 | -14.64436 | 33162 ft | 441 kts | 234° |
| 2026-05-05 19:24 | 34.26436 | -14.70261 | 33161 ft | 440 kts | 234° |
| 2026-05-05 19:24 | 34.22659 | -14.76100 | 33163 ft | 440 kts | 234° |
| 2026-05-05 19:25 | 34.19518 | -14.80945 | 33163 ft | 440 kts | 233° |
| 2026-05-05 19:25 | 34.15137 | -14.87706 | 33156 ft | 440 kts | 234° |
| 2026-05-05 19:26 | 34.11373 | -14.93516 | 33159 ft | 439 kts | 233° |
| 2026-05-05 19:26 | 34.08216 | -14.98362 | 33164 ft | 439 kts | 233° |
| 2026-05-05 19:27 | 34.04445 | -15.04139 | 33163 ft | 439 kts | 233° |
| 2026-05-05 19:27 | 34.00663 | -15.09929 | 33164 ft | 438 kts | 233° |
| 2026-05-05 19:28 | 33.96896 | -15.15686 | 33160 ft | 438 kts | 234° |
| 2026-05-05 19:28 | 33.93131 | -15.21453 | 33156 ft | 437 kts | 234° |
| 2026-05-05 19:29 | 33.89379 | -15.27190 | 33163 ft | 437 kts | 233° |
| 2026-05-05 19:29 | 33.85630 | -15.32891 | 32812 ft | 432 kts | 233° |
| 2026-05-05 19:30 | 33.83799 | -15.35665 | 32058 ft | 416 kts | 233° |
| 2026-05-05 19:30 | 33.82015 | -15.38368 | 31367 ft | 411 kts | 233° |
| 2026-05-05 19:30 | 33.80239 | -15.41063 | 30678 ft | 412 kts | 233° |
| 2026-05-05 19:30 | 33.78463 | -15.43764 | 29952 ft | 411 kts | 233° |
| 2026-05-05 19:31 | 33.76697 | -15.46449 | 29186 ft | 408 kts | 233° |
| 2026-05-05 19:31 | 33.74943 | -15.49107 | 28255 ft | 403 kts | 233° |
| 2026-05-05 19:31 | 33.73209 | -15.51729 | 27337 ft | 399 kts | 233° |
| 2026-05-05 19:31 | 33.71487 | -15.54329 | 26449 ft | 395 kts | 233° |
| 2026-05-05 19:32 | 33.69784 | -15.56901 | 25564 ft | 391 kts | 233° |
| 2026-05-05 19:32 | 33.68112 | -15.59425 | 24914 ft | 376 kts | 234° |
| 2026-05-05 19:32 | 33.66527 | -15.61809 | 24539 ft | 355 kts | 234° |
| 2026-05-05 19:32 | 33.64990 | -15.64127 | 24121 ft | 356 kts | 234° |
| 2026-05-05 19:33 | 33.63443 | -15.66466 | 23667 ft | 360 kts | 234° |
| 2026-05-05 19:33 | 33.61888 | -15.68818 | 23195 ft | 357 kts | 234° |
| 2026-05-05 19:33 | 33.60347 | -15.71143 | 22783 ft | 355 kts | 234° |
| 2026-05-05 19:33 | 33.58832 | -15.73423 | 22409 ft | 353 kts | 234° |
| 2026-05-05 19:34 | 33.57301 | -15.75722 | 22007 ft | 351 kts | 234° |
| 2026-05-05 19:34 | 33.55763 | -15.77998 | 21621 ft | 351 kts | 231° |
| 2026-05-05 19:34 | 33.54051 | -15.80078 | 21230 ft | 350 kts | 227° |
| 2026-05-05 19:35 | 33.50579 | -15.84138 | 20443 ft | 347 kts | 227° |
| 2026-05-05 19:35 | 33.48857 | -15.86160 | 20045 ft | 345 kts | 227° |
| 2026-05-05 19:35 | 33.47164 | -15.88146 | 19657 ft | 344 kts | 227° |
| 2026-05-05 19:35 | 33.45437 | -15.90170 | 19239 ft | 342 kts | 227° |
| 2026-05-05 19:36 | 33.43760 | -15.92131 | 18846 ft | 341 kts | 227° |
| 2026-05-05 19:36 | 33.42067 | -15.94110 | 18434 ft | 339 kts | 227° |
| 2026-05-05 19:36 | 33.40381 | -15.96077 | 17984 ft | 338 kts | 226° |
| 2026-05-05 19:36 | 33.38695 | -15.98042 | 17569 ft | 337 kts | 227° |
| 2026-05-05 19:37 | 33.37017 | -15.99998 | 17163 ft | 336 kts | 226° |
| 2026-05-05 19:37 | 33.35348 | -16.01944 | 16752 ft | 334 kts | 227° |
| 2026-05-05 19:37 | 33.33685 | -16.03882 | 16340 ft | 333 kts | 227° |
| 2026-05-05 19:37 | 33.32030 | -16.05811 | 15934 ft | 331 kts | 226° |
| 2026-05-05 19:38 | 33.30386 | -16.07728 | 15531 ft | 330 kts | 227° |
| 2026-05-05 19:38 | 33.28748 | -16.09641 | 15123 ft | 328 kts | 227° |
| 2026-05-05 19:38 | 33.27118 | -16.11543 | 14734 ft | 327 kts | 227° |
| 2026-05-05 19:38 | 33.25492 | -16.13440 | 14337 ft | 326 kts | 226° |
| 2026-05-05 19:39 | 33.23869 | -16.15328 | 13930 ft | 326 kts | 226° |
| 2026-05-05 19:39 | 33.22269 | -16.17185 | 13496 ft | 324 kts | 226° |
| 2026-05-05 19:39 | 33.20649 | -16.19061 | 13080 ft | 323 kts | 226° |
| 2026-05-05 19:39 | 33.19040 | -16.20928 | 12693 ft | 322 kts | 226° |
| 2026-05-05 19:40 | 33.17437 | -16.22788 | 12280 ft | 320 kts | 226° |
| 2026-05-05 19:40 | 33.16379 | -16.24017 | 12011 ft | 320 kts | 226° |
| 2026-05-05 19:40 | 33.14247 | -16.26488 | 11474 ft | 318 kts | 225° |
| 2026-05-05 19:40 | 33.13736 | -16.27080 | 11341 ft | 317 kts | 226° |
| 2026-05-05 19:41 | 33.11090 | -16.30143 | 10667 ft | 314 kts | 225° |
| 2026-05-05 19:41 | 33.09551 | -16.31920 | 10526 ft | 302 kts | 225° |
| 2026-05-05 19:41 | 33.08058 | -16.33643 | 10256 ft | 296 kts | 225° |